createdAt,value
2022-10-19T00:01:06.312Z,100.00
2022-10-19T00:03:34.960Z,100.00
2022-10-19T00:06:14.081Z,100.00
2022-10-19T00:08:40.741Z,100.00
2022-10-19T00:11:07.606Z,100.00
2022-10-19T00:13:34.380Z,100.00
2022-10-19T00:16:01.019Z,100.00
2022-10-19T00:18:27.463Z,100.00
2022-10-19T00:21:03.236Z,100.00
2022-10-19T00:23:29.770Z,100.00
2022-10-19T00:25:56.948Z,100.00
2022-10-19T00:28:23.518Z,100.00
2022-10-19T00:33:22.552Z,100.00
2022-10-19T00:35:52.758Z,100.00
2022-10-19T00:38:20.817Z,100.00
2022-10-19T00:40:48.221Z,100.00
2022-10-19T00:43:25.971Z,100.00
2022-10-19T00:45:52.961Z,100.00
2022-10-19T00:48:25.755Z,100.00
2022-10-19T00:50:56.047Z,100.00
2022-10-19T00:53:26.066Z,100.00
2022-10-19T00:55:53.305Z,100.00
2022-10-19T00:58:20.089Z,100.00
2022-10-19T01:00:46.811Z,100.00
2022-10-19T01:03:14.372Z,100.00
2022-10-19T01:05:41.305Z,100.00
2022-10-19T01:08:09.756Z,100.00
2022-10-19T01:10:48.446Z,100.00
2022-10-19T01:13:28.632Z,100.00
2022-10-19T01:16:07.748Z,100.00
2022-10-19T01:18:49.454Z,100.00
2022-10-19T01:21:23.147Z,100.00
2022-10-19T01:24:14.523Z,100.00
2022-10-19T01:27:07.745Z,100.00
2022-10-19T01:30:01.603Z,100.00
2022-10-19T01:33:16.626Z,100.00
2022-10-19T01:36:08.392Z,100.00
2022-10-19T01:38:45.966Z,100.00
2022-10-19T01:41:20.436Z,100.00
2022-10-19T01:43:55.771Z,100.00
2022-10-19T01:46:49.436Z,100.00
2022-10-19T01:49:24.469Z,100.00
2022-10-19T01:54:27.524Z,100.00
2022-10-19T01:56:56.329Z,100.00
2022-10-19T01:59:23.619Z,100.00
2022-10-19T02:01:53.447Z,100.00
2022-10-19T02:04:22.917Z,100.00
2022-10-19T02:06:52.977Z,100.00
2022-10-19T02:09:20.276Z,100.00
2022-10-19T02:11:54.679Z,100.00
2022-10-19T02:14:27.601Z,100.00
2022-10-19T02:17:05.907Z,100.00
2022-10-19T02:19:32.485Z,100.00
2022-10-19T02:21:59.244Z,100.00
2022-10-19T02:24:25.756Z,100.00
2022-10-19T02:26:52.386Z,100.00
2022-10-19T02:29:19.069Z,100.00
2022-10-19T02:31:45.857Z,100.00
2022-10-19T02:34:13.519Z,100.00
2022-10-19T02:36:40.476Z,100.00
2022-10-19T02:39:08.117Z,100.00
2022-10-19T02:42:05.367Z,100.00
2022-10-19T02:44:49.840Z,100.00
2022-10-19T02:47:25.647Z,100.00
2022-10-19T02:49:52.650Z,100.00
2022-10-19T02:52:19.457Z,100.00
2022-10-19T02:54:46.118Z,100.00
2022-10-19T02:57:19.738Z,100.00
2022-10-19T02:59:46.946Z,100.00
2022-10-19T03:02:15.026Z,100.00
2022-10-19T03:04:42.087Z,100.00
2022-10-19T03:07:10.544Z,100.00
2022-10-19T03:09:37.151Z,100.00
2022-10-19T03:12:03.732Z,100.00
2022-10-19T03:14:30.260Z,100.00
2022-10-19T03:16:56.697Z,100.00
2022-10-19T03:19:23.439Z,100.00
2022-10-19T03:21:50.761Z,100.00
2022-10-19T03:24:17.737Z,100.00
2022-10-19T03:26:44.337Z,100.00
2022-10-19T03:29:10.884Z,100.00
2022-10-19T03:31:37.522Z,100.00
2022-10-19T03:34:04.260Z,100.00
2022-10-19T03:36:33.403Z,100.00
2022-10-19T03:39:02.838Z,100.00
2022-10-19T03:41:31.439Z,100.00
2022-10-19T03:43:57.932Z,100.00
2022-10-19T03:46:24.576Z,100.00
2022-10-19T03:48:51.078Z,100.00
2022-10-19T03:51:18.907Z,100.00
2022-10-19T03:53:45.585Z,100.00
2022-10-19T03:56:17.723Z,100.00
2022-10-19T03:58:46.866Z,100.00
2022-10-19T04:01:16.411Z,100.00
2022-10-19T04:03:43.097Z,100.00
2022-10-19T04:06:19.764Z,100.00
2022-10-19T04:08:49.816Z,100.00
2022-10-19T04:11:18.534Z,100.00
2022-10-19T04:13:48.303Z,100.00
2022-10-19T04:16:14.815Z,100.00
2022-10-19T04:18:41.300Z,100.00
2022-10-19T04:21:07.806Z,100.00
2022-10-19T04:23:35.167Z,100.00
2022-10-19T04:26:05.613Z,100.00
2022-10-19T04:28:32.466Z,100.00
2022-10-19T04:31:02.902Z,100.00
2022-10-19T04:33:29.327Z,100.00
2022-10-19T04:35:59.946Z,100.00
2022-10-19T04:38:27.511Z,100.00
2022-10-19T04:40:53.969Z,100.00
2022-10-19T04:43:20.433Z,100.00
2022-10-19T04:45:46.887Z,100.00
2022-10-19T04:48:15.103Z,100.00
2022-10-19T04:50:41.833Z,100.00
2022-10-19T04:53:08.262Z,100.00
2022-10-19T04:55:34.688Z,100.00
2022-10-19T04:58:01.130Z,100.00
2022-10-19T05:00:27.582Z,100.00
2022-10-19T05:02:54.031Z,100.00
2022-10-19T05:05:20.552Z,100.00
2022-10-19T05:07:48.515Z,100.00
2022-10-19T05:10:15.055Z,100.00
2022-10-19T05:12:41.402Z,100.00
2022-10-19T05:15:08.534Z,100.00
2022-10-19T05:17:35.368Z,100.00
2022-10-19T05:20:02.155Z,100.00
2022-10-19T05:22:28.533Z,100.00
2022-10-19T05:24:58.058Z,100.00
2022-10-19T05:27:24.806Z,100.00
2022-10-19T05:29:51.311Z,100.00
2022-10-19T05:32:17.771Z,100.00
2022-10-19T05:34:44.264Z,100.00
2022-10-19T05:37:10.654Z,100.00
2022-10-19T05:39:37.083Z,100.00
2022-10-19T05:42:03.756Z,100.00
2022-10-19T05:44:30.382Z,100.00
2022-10-19T05:46:56.860Z,100.00
2022-10-19T05:49:23.396Z,100.00
2022-10-19T05:51:49.916Z,100.00
2022-10-19T05:54:16.388Z,100.00
2022-10-19T05:56:43.874Z,100.00
2022-10-19T05:59:14.834Z,100.00
2022-10-19T06:01:41.329Z,100.00
2022-10-19T06:04:07.879Z,100.00
2022-10-19T06:06:34.585Z,100.00
2022-10-19T06:09:01.020Z,100.00
2022-10-19T06:11:30.758Z,100.00
2022-10-19T06:13:59.488Z,100.00
2022-10-19T06:16:27.168Z,100.00
2022-10-19T06:18:54.856Z,100.00
2022-10-19T06:21:24.006Z,100.00
2022-10-19T06:23:55.888Z,100.00
2022-10-19T06:26:23.234Z,100.00
2022-10-19T06:28:50.394Z,100.00
2022-10-19T06:31:17.570Z,100.00
2022-10-19T06:33:48.477Z,100.00
2022-10-19T06:36:19.582Z,100.00
2022-10-19T06:38:46.793Z,100.00
2022-10-19T06:41:13.396Z,100.00
2022-10-19T06:43:40.271Z,100.00
2022-10-19T06:46:14.782Z,100.00
2022-10-19T06:48:41.435Z,100.00
2022-10-19T06:51:07.933Z,100.00
2022-10-19T06:53:36.065Z,100.00
2022-10-19T06:56:05.816Z,100.00
2022-10-19T06:58:36.883Z,100.00
2022-10-19T07:01:05.112Z,100.00
2022-10-19T07:03:31.543Z,100.00
2022-10-19T07:06:00.000Z,100.00
2022-10-19T07:08:28.374Z,100.00
2022-10-19T07:10:57.449Z,100.00
2022-10-19T07:13:25.138Z,100.00
2022-10-19T07:15:58.452Z,100.00
2022-10-19T07:18:25.867Z,100.00
2022-10-19T07:21:00.326Z,100.00
2022-10-19T07:23:28.790Z,100.00
2022-10-19T07:26:00.926Z,100.00
2022-10-19T07:28:29.327Z,100.00
2022-10-19T07:30:56.256Z,100.00
2022-10-19T07:33:23.077Z,99.56
2022-10-19T07:35:49.945Z,99.65
2022-10-19T07:38:16.487Z,98.48
2022-10-19T07:40:46.385Z,99.50
2022-10-19T07:43:14.016Z,97.42
2022-10-19T07:45:40.494Z,98.11
2022-10-19T07:48:06.890Z,99.31
2022-10-19T07:50:33.354Z,97.89
2022-10-19T07:52:59.881Z,97.96
2022-10-19T07:55:26.553Z,95.61
2022-10-19T07:57:52.996Z,95.00
2022-10-19T08:00:19.601Z,95.39
2022-10-19T08:02:59.742Z,96.01
2022-10-19T08:05:33.477Z,95.81
2022-10-19T08:07:59.983Z,95.16
2022-10-19T08:10:26.639Z,93.85
2022-10-19T08:12:53.261Z,94.63
2022-10-19T08:15:19.806Z,95.11
2022-10-19T08:17:46.259Z,93.90
2022-10-19T08:20:12.909Z,91.52
2022-10-19T08:22:39.721Z,88.70
2022-10-19T08:25:06.321Z,85.33
2022-10-19T08:27:32.867Z,88.73
2022-10-19T08:29:59.339Z,88.41
2022-10-19T08:32:25.762Z,85.04
2022-10-19T08:34:52.248Z,85.39
2022-10-19T08:37:39.601Z,85.19
2022-10-19T08:40:05.742Z,85.24
2022-10-19T08:42:52.628Z,84.85
2022-10-19T08:45:25.569Z,84.52
2022-10-19T08:48:15.827Z,84.39
2022-10-19T08:50:44.900Z,84.71
2022-10-19T08:53:16.743Z,84.96
2022-10-19T08:55:53.518Z,84.66
2022-10-19T08:58:47.391Z,82.93
2022-10-19T09:01:36.880Z,83.11
2022-10-19T09:04:20.587Z,80.85
2022-10-19T09:07:20.833Z,81.56
2022-10-19T09:10:05.491Z,80.52
2022-10-19T09:12:47.909Z,80.16
2022-10-19T09:15:25.462Z,79.16
2022-10-19T09:17:51.976Z,77.80
2022-10-19T09:20:31.512Z,78.94
2022-10-19T09:23:11.061Z,78.10
2022-10-19T09:25:40.272Z,76.60
2022-10-19T09:28:13.988Z,76.40
2022-10-19T09:30:42.676Z,75.32
2022-10-19T09:33:19.085Z,73.42
2022-10-19T09:35:46.703Z,71.91
2022-10-19T09:38:16.723Z,70.67
2022-10-19T09:40:43.941Z,69.91
2022-10-19T09:43:21.926Z,70.58
2022-10-19T09:46:00.804Z,68.81
2022-10-19T09:48:38.324Z,69.07
2022-10-19T09:51:12.389Z,67.93
2022-10-19T09:53:44.641Z,67.03
2022-10-19T09:56:19.192Z,68.07
2022-10-19T09:58:57.264Z,69.11
2022-10-19T10:01:41.448Z,68.62
2022-10-19T10:04:18.272Z,69.57
2022-10-19T10:06:48.054Z,69.58
2022-10-19T10:09:21.248Z,68.74
2022-10-19T10:11:50.755Z,67.35
2022-10-19T10:14:26.755Z,67.00
2022-10-19T10:32:55.076Z,68.55
2022-10-19T10:35:39.535Z,67.79
2022-10-19T10:38:21.595Z,68.99
2022-10-19T10:41:02.823Z,67.55
2022-10-19T10:43:34.784Z,66.60
2022-10-19T10:46:06.465Z,64.70
2022-10-19T10:48:53.407Z,65.13
2022-10-19T10:51:52.208Z,63.28
2022-10-19T10:54:26.736Z,62.18
2022-10-19T10:57:12.101Z,63.20
2022-10-19T10:59:48.282Z,59.69
2022-10-19T11:02:17.547Z,61.67
2022-10-19T11:04:52.299Z,63.12
2022-10-19T11:07:22.886Z,64.15
2022-10-19T11:10:02.706Z,63.75
2022-10-19T11:12:38.312Z,62.72
2022-10-19T11:15:19.537Z,59.97
2022-10-19T11:17:55.655Z,59.12
2022-10-19T11:20:26.655Z,61.91
2022-10-19T11:23:06.273Z,62.02
2022-10-19T11:25:44.893Z,60.93
2022-10-19T11:28:22.144Z,64.47
2022-10-19T11:31:02.974Z,64.43
2022-10-19T11:33:53.229Z,65.73
2022-10-19T11:36:28.765Z,64.36
2022-10-19T11:39:21.671Z,65.55
2022-10-19T11:42:06.318Z,65.21
2022-10-19T11:44:42.311Z,62.74
2022-10-19T11:47:29.968Z,64.29
2022-10-19T11:49:59.160Z,63.41
2022-10-19T11:52:56.264Z,63.17
2022-10-19T11:55:34.566Z,63.10
2022-10-19T11:58:05.201Z,64.21
2022-10-19T12:00:42.494Z,64.26
2022-10-19T12:03:36.361Z,65.35
2022-10-19T12:06:44.688Z,64.32
2022-10-19T12:09:28.099Z,64.41
2022-10-19T12:12:30.900Z,63.77
2022-10-19T12:15:23.874Z,63.05
2022-10-19T12:17:53.719Z,64.82
2022-10-19T12:20:24.173Z,62.87
2022-10-19T12:22:51.231Z,65.11
2022-10-19T12:25:19.903Z,66.79
2022-10-19T12:27:49.098Z,66.84
2022-10-19T12:30:17.668Z,67.71
2022-10-19T12:32:54.569Z,68.28
2022-10-19T12:35:45.802Z,67.26
2022-10-19T12:38:40.924Z,68.48
2022-10-19T12:41:18.442Z,68.11
2022-10-19T12:44:01.028Z,69.10
2022-10-19T12:46:39.332Z,68.59
2022-10-19T12:49:30.606Z,69.10
2022-10-19T12:51:59.508Z,69.22
2022-10-19T12:54:34.433Z,68.40
2022-10-19T12:57:02.925Z,69.00
2022-10-19T12:59:34.944Z,68.99
2022-10-19T13:02:05.073Z,68.75
2022-10-19T13:04:35.820Z,69.59
2022-10-19T13:07:04.502Z,69.17
2022-10-19T13:09:42.083Z,68.77
2022-10-19T13:12:17.829Z,69.24
2022-10-19T13:14:51.322Z,69.00
2022-10-19T13:17:49.112Z,66.82
2022-10-19T13:20:15.647Z,65.47
2022-10-19T13:22:44.980Z,67.19
2022-10-19T13:25:30.991Z,68.36
2022-10-19T13:28:02.186Z,67.99
2022-10-19T13:30:42.125Z,70.60
2022-10-19T13:33:26.808Z,68.52
2022-10-19T13:35:59.509Z,69.84
2022-10-19T13:38:32.393Z,70.08
2022-10-19T13:41:10.062Z,71.43
2022-10-19T13:44:02.764Z,70.81
2022-10-19T13:46:29.183Z,69.46
2022-10-19T13:49:01.683Z,71.52
2022-10-19T13:52:02.031Z,70.29
2022-10-19T13:54:55.284Z,71.15
2022-10-19T13:58:14.070Z,71.39
2022-10-19T14:01:18.102Z,70.29
2022-10-19T14:04:15.177Z,72.21
2022-10-19T14:06:54.631Z,72.75
2022-10-19T14:09:31.249Z,73.79
2022-10-19T14:12:08.922Z,72.46
2022-10-19T14:14:43.239Z,73.33
2022-10-19T14:17:42.326Z,73.17
2022-10-19T14:20:29.738Z,72.37
2022-10-19T14:22:56.476Z,73.74
2022-10-19T14:25:27.109Z,74.90
2022-10-19T14:28:02.170Z,75.60
2022-10-19T14:30:32.366Z,74.61
2022-10-19T14:33:02.344Z,75.09
2022-10-19T14:35:33.047Z,76.04
2022-10-19T14:38:00.349Z,75.35
2022-10-19T14:40:38.556Z,75.27
2022-10-19T14:43:28.962Z,75.16
2022-10-19T14:46:04.529Z,73.49
2022-10-19T14:48:31.051Z,74.35
2022-10-19T14:50:58.114Z,73.63
2022-10-19T14:53:40.408Z,73.72
2022-10-19T14:56:15.940Z,75.81
2022-10-19T14:58:50.671Z,75.40
2022-10-19T15:01:19.293Z,75.95
2022-10-19T15:03:46.672Z,75.42
2022-10-19T15:06:23.278Z,75.19
2022-10-19T15:09:03.128Z,74.72
2022-10-19T15:11:41.216Z,75.06
2022-10-19T15:14:19.041Z,73.38
2022-10-19T15:16:53.216Z,74.38
2022-10-19T15:19:32.386Z,75.31
2022-10-19T15:22:16.792Z,73.96
2022-10-19T15:24:59.298Z,75.52
2022-10-19T15:27:40.248Z,76.59
2022-10-19T15:30:28.020Z,76.61
2022-10-19T15:33:00.219Z,77.22
2022-10-19T15:35:36.292Z,76.43
2022-10-19T15:38:26.974Z,77.63
2022-10-19T15:40:58.777Z,77.72
2022-10-19T15:43:34.228Z,77.59
2022-10-19T15:46:06.737Z,78.67
2022-10-19T15:48:42.083Z,78.93
2022-10-19T15:51:23.552Z,79.47
2022-10-19T15:53:55.901Z,79.60
2022-10-19T15:56:24.419Z,79.94
2022-10-19T15:58:56.156Z,81.54
2022-10-19T16:01:26.651Z,82.14
2022-10-19T16:03:53.959Z,82.47
2022-10-19T16:06:23.286Z,82.03
2022-10-19T16:08:51.263Z,82.45
2022-10-19T16:11:20.417Z,83.08
2022-10-19T16:13:47.302Z,84.22
2022-10-19T16:16:25.768Z,85.34
2022-10-19T16:18:53.012Z,85.59
2022-10-19T16:21:22.375Z,85.90
2022-10-19T16:23:49.108Z,86.18
2022-10-19T16:26:16.620Z,87.21
2022-10-19T16:28:43.806Z,86.84
2022-10-19T16:31:10.969Z,87.64
2022-10-19T16:33:37.502Z,87.66
2022-10-19T16:36:05.101Z,89.07
2022-10-19T16:38:31.646Z,88.55
2022-10-19T16:41:05.202Z,88.61
2022-10-19T16:43:32.331Z,88.46
2022-10-19T16:45:58.873Z,88.46
2022-10-19T16:48:25.395Z,89.41
2022-10-19T16:51:07.262Z,89.72
2022-10-19T16:53:35.086Z,90.04
2022-10-19T16:56:20.825Z,90.82
2022-10-19T16:58:47.403Z,91.10
2022-10-19T17:01:15.998Z,92.20
2022-10-19T17:03:44.207Z,91.92
2022-10-19T17:06:11.313Z,91.85
2022-10-19T17:09:02.725Z,91.06
2022-10-19T17:11:25.310Z,90.29
2022-10-19T17:13:54.203Z,90.01
2022-10-19T17:16:22.168Z,91.85
2022-10-19T17:18:49.478Z,91.52
2022-10-19T17:21:19.963Z,92.31
2022-10-19T17:23:50.944Z,92.96
2022-10-19T17:26:17.503Z,93.85
2022-10-19T17:28:43.932Z,93.62
2022-10-19T17:31:13.741Z,94.28
2022-10-19T17:33:41.743Z,93.17
2022-10-19T17:36:14.433Z,93.47
2022-10-19T17:38:41.645Z,94.26
2022-10-19T17:41:11.181Z,93.91
2022-10-19T17:43:39.049Z,93.39
2022-10-19T17:46:07.674Z,95.43
2022-10-19T17:48:35.951Z,96.97
2022-10-19T17:51:06.134Z,96.10
2022-10-19T17:53:33.670Z,95.69
2022-10-19T17:56:05.926Z,95.34
2022-10-19T17:58:36.379Z,94.31
2022-10-19T18:01:06.659Z,95.13
2022-10-19T18:03:35.122Z,95.09
2022-10-19T18:06:05.638Z,94.55
2022-10-19T18:08:38.024Z,95.22
2022-10-19T18:11:11.474Z,95.30
2022-10-19T18:13:39.198Z,95.18
2022-10-19T18:16:14.714Z,95.47
2022-10-19T18:18:45.669Z,94.09
2022-10-19T18:21:14.215Z,95.49
2022-10-19T18:23:41.365Z,95.04
2022-10-19T18:26:11.667Z,94.62
2022-10-19T18:28:38.237Z,94.74
2022-10-19T18:31:08.689Z,94.79
2022-10-19T18:33:36.138Z,93.95
2022-10-19T18:36:03.139Z,94.52
2022-10-19T18:38:29.699Z,95.10
2022-10-19T18:40:56.592Z,95.90
2022-10-19T18:43:23.341Z,96.32
2022-10-19T18:45:54.146Z,96.70
2022-10-19T18:48:21.693Z,97.77
2022-10-19T18:50:48.825Z,97.58
2022-10-19T18:53:15.755Z,97.48
2022-10-19T18:55:42.671Z,97.55
2022-10-19T18:58:09.890Z,97.65
2022-10-19T19:00:37.041Z,97.74
2022-10-19T19:03:03.981Z,98.14
2022-10-19T19:05:32.704Z,98.25
2022-10-19T19:07:59.237Z,98.44
2022-10-19T19:10:25.727Z,98.42
2022-10-19T19:12:52.350Z,98.97
2022-10-19T19:15:19.735Z,98.89
2022-10-19T19:17:46.237Z,99.65
2022-10-19T19:20:12.692Z,99.31
2022-10-19T19:22:39.376Z,99.60
2022-10-19T19:25:06.401Z,99.18
2022-10-19T19:27:32.935Z,99.26
2022-10-19T19:30:00.571Z,100.00
2022-10-19T19:32:27.581Z,100.00
2022-10-19T19:34:54.982Z,100.00
2022-10-19T19:37:21.698Z,99.91
2022-10-19T19:39:48.187Z,99.70
2022-10-19T19:42:14.678Z,99.41
2022-10-19T19:44:41.180Z,98.93
2022-10-19T19:47:08.473Z,99.06
2022-10-19T19:49:35.031Z,99.07
2022-10-19T19:52:01.519Z,99.41
2022-10-19T19:54:28.049Z,99.73
2022-10-19T19:56:54.486Z,100.00
2022-10-19T19:59:21.044Z,100.00
2022-10-19T20:01:47.512Z,99.60
2022-10-19T20:04:14.066Z,99.50
2022-10-19T20:06:41.056Z,100.00
2022-10-19T20:09:08.789Z,100.00
2022-10-19T20:11:38.438Z,100.00
2022-10-19T20:14:08.557Z,100.00
2022-10-19T20:16:35.515Z,100.00
2022-10-19T20:19:11.690Z,100.00
2022-10-19T20:21:39.075Z,100.00
2022-10-19T20:24:06.320Z,100.00
2022-10-19T20:26:33.484Z,100.00
2022-10-19T20:29:02.616Z,100.00
2022-10-19T20:31:30.162Z,100.00
2022-10-19T20:33:56.766Z,100.00
2022-10-19T20:36:24.451Z,100.00
2022-10-19T20:38:52.415Z,100.00
2022-10-19T20:41:20.607Z,100.00
2022-10-19T20:43:47.396Z,100.00
2022-10-19T20:46:16.523Z,100.00
2022-10-19T20:48:43.616Z,100.00
2022-10-19T20:51:24.855Z,100.00
2022-10-19T20:53:55.603Z,100.00
2022-10-19T20:56:28.195Z,100.00
2022-10-19T20:58:56.477Z,100.00
2022-10-19T21:01:23.635Z,100.00
2022-10-19T21:03:55.728Z,100.00
2022-10-19T21:06:24.387Z,100.00
2022-10-19T21:08:51.506Z,100.00
2022-10-19T21:11:24.218Z,100.00
2022-10-19T21:13:55.831Z,100.00
2022-10-19T21:16:24.389Z,100.00
2022-10-19T21:18:50.909Z,100.00
2022-10-19T21:21:18.932Z,100.00
2022-10-19T21:23:49.687Z,100.00
2022-10-19T21:26:17.351Z,100.00
2022-10-19T21:28:49.015Z,100.00
2022-10-19T21:31:17.290Z,100.00
2022-10-19T21:33:44.423Z,100.00
2022-10-19T21:36:12.230Z,100.00
2022-10-19T21:38:38.784Z,100.00
2022-10-19T21:41:06.838Z,100.00
2022-10-19T21:43:34.097Z,100.00
2022-10-19T21:46:05.782Z,100.00
2022-10-19T21:48:33.696Z,100.00
2022-10-19T21:51:19.064Z,100.00
2022-10-19T21:53:46.624Z,100.00
2022-10-19T21:56:14.480Z,100.00
2022-10-19T21:58:52.743Z,100.00
2022-10-19T22:17:40.357Z,100.00
2022-10-19T22:20:07.159Z,100.00
2022-10-19T22:22:33.937Z,100.00
2022-10-19T22:25:00.607Z,100.00
2022-10-19T22:27:27.180Z,100.00
2022-10-19T22:29:53.758Z,100.00
2022-10-19T22:32:20.288Z,100.00
2022-10-19T22:34:46.785Z,100.00
2022-10-19T22:37:13.204Z,100.00
2022-10-19T22:42:06.169Z,100.00
2022-10-19T22:44:32.624Z,100.00
2022-10-19T22:46:59.072Z,100.00
2022-10-19T22:49:25.526Z,100.00
2022-10-19T22:51:52.004Z,100.00
2022-10-19T22:54:18.498Z,100.00
2022-10-19T22:56:44.940Z,100.00
2022-10-19T22:59:11.402Z,100.00
2022-10-19T23:01:38.236Z,100.00
2022-10-19T23:04:04.854Z,100.00
2022-10-19T23:06:31.244Z,100.00
2022-10-19T23:08:57.859Z,100.00
2022-10-19T23:11:24.437Z,100.00
2022-10-19T23:13:50.825Z,100.00
2022-10-19T23:16:17.429Z,100.00
2022-10-19T23:18:44.108Z,100.00
2022-10-19T23:21:13.078Z,100.00
2022-10-19T23:23:40.870Z,100.00
2022-10-19T23:26:09.526Z,100.00
2022-10-19T23:28:39.163Z,100.00
2022-10-19T23:31:09.262Z,100.00
2022-10-19T23:33:36.483Z,100.00
2022-10-19T23:36:14.409Z,100.00
2022-10-19T23:38:42.437Z,100.00
2022-10-19T23:41:09.031Z,100.00
2022-10-19T23:46:03.270Z,100.00
2022-10-19T23:48:30.164Z,100.00
2022-10-19T23:51:01.775Z,100.00
2022-10-19T23:53:29.830Z,100.00
2022-10-19T23:56:01.193Z,100.00
2022-10-19T23:58:28.309Z,100.00
